Terminal Aerodrome Forecast
Issued by NWS

Home | Current Version | Previous Version | Text Only | Print | Product List | Glossary On
Versions: 1 2 3 4 5 6 7 8 9 10 11 12 13 14 15 16 17 18 19 20 21 22 23 24 25 26 27 28 29 30
053
FTUS43 KPAH 241121
TAFCGI
TAF
KCGI 241121Z 2412/2512 VRB05KT P6SM VCSH SCT050 BKN090
     FM241500 18005KT P6SM VCTS BKN050CB
     FM250100 18005KT P6SM SCT050 BKN120=

USA.gov is the U.S. government's official web portal to all federal, state and local government web resources and services.